Welcome to Northern Hawkes Bay. New Zealand.
PWS Header
      nz Flag



Hit Counter


W3C Valid W3C Valid logo


    Wairoa

Select any of the Stations below to visit their websites.










Historic Data from Weather Underground
Select the location of interest below. Wairoa is the default. Please have patience, this Data is slow to load in.
Northern Hawkes Bay Historical Data
Daily Summary for May 25, 2017 Units:  Metric    English   Both
« Previous Day
Next Day »
Daily Weekly Monthly Yearly Custom
  High: Low: Average:
Temperature: 13.3 °C 8.9 °C 11.4 °C
Dew Point: 12.4 °C 8.8 °C 10.8 °C
Humidity: 99% 88% 96%
Wind Speed: 15.8km/h 0.0km/h 5.1km/h
Wind Gust: 24.5km/h - -
Wind- - West
Pressure: 1021.9 hPa 1019.2 hPa -
Precipitation: 6.9 mm    
Historical Graphs
 
 
Tabular Data for May 25, 2017
Time Temperature Dew Point Pressure Wind Wind Speed Wind Gust Humidity Rainfall Rate (Hourly) solar
00:02 12.0 °C 10.6 °C 1019.9 hPa West 3.5 km/h 12.2 km/h 91% 0.0 mm 0 W/m2
00:07 12.1 °C 10.7 °C 1019.9 hPa WSW 5.0 km/h 11.1 km/h 91% 0.0 mm 0 W/m2
00:12 12.1 °C 10.5 °C 1019.9 hPa West 5.0 km/h 12.2 km/h 90% 0.0 mm 0 W/m2
00:17 12.1 °C 10.5 °C 1019.9 hPa West 6.1 km/h 17.2 km/h 90% 0.0 mm 0 W/m2
00:22 12.1 °C 10.3 °C 1019.9 hPa West 5.0 km/h 17.2 km/h 89% 0.0 mm 0 W/m2
00:27 12.1 °C 10.3 °C 1019.9 hPa West 6.1 km/h 12.2 km/h 89% 0.0 mm 0 W/m2
00:32 12.0 °C 10.2 °C 1019.9 hPa West 6.1 km/h 14.8 km/h 89% 0.0 mm 0 W/m2
00:37 12.0 °C 10.2 °C 1019.5 hPa West 8.7 km/h 15.8 km/h 89% 0.0 mm 0 W/m2
00:42 12.1 °C 10.3 °C 1019.5 hPa West 6.1 km/h 15.8 km/h 89% 0.0 mm 0 W/m2
00:47 12.0 °C 10.1 °C 1019.5 hPa West 3.5 km/h 15.8 km/h 88% 0.0 mm 0 W/m2
00:52 12.0 °C 10.1 °C 1019.9 hPa West 5.0 km/h 13.4 km/h 88% 0.0 mm 0 W/m2
00:57 12.0 °C 10.1 °C 1019.9 hPa West 3.5 km/h 11.1 km/h 88% 0.0 mm 0 W/m2
01:02 12.0 °C 10.1 °C 1019.9 hPa West 2.6 km/h 9.7 km/h 88% 0.0 mm 0 W/m2
01:07 12.0 °C 10.1 °C 1019.5 hPa West 3.5 km/h 12.2 km/h 88% 0.0 mm 0 W/m2
01:12 11.9 °C 10.2 °C 1019.5 hPa West 5.0 km/h 12.2 km/h 89% 0.0 mm 0 W/m2
01:17 11.9 °C 10.2 °C 1019.5 hPa West 2.6 km/h 11.1 km/h 89% 0.0 mm 0 W/m2
01:22 11.9 °C 10.2 °C 1019.9 hPa West 3.5 km/h 11.1 km/h 89% 0.0 mm 0 W/m2
01:27 11.9 °C 10.2 °C 1019.9 hPa WNW 3.5 km/h 9.7 km/h 89% 0.0 mm 0 W/m2
01:32 11.8 °C 10.1 °C 1019.5 hPa WNW 2.6 km/h 11.1 km/h 89% 0.0 mm 0 W/m2
01:37 11.8 °C 10.1 °C 1019.9 hPa West 8.7 km/h 12.2 km/h 89% 0.0 mm 0 W/m2
01:42 11.8 °C 10.1 °C 1019.5 hPa WSW 7.2 km/h 12.2 km/h 89% 0.0 mm 0 W/m2
01:47 11.9 °C 10.2 °C 1019.5 hPa West 11.1 km/h 14.8 km/h 89% 0.0 mm 0 W/m2
01:52 11.8 °C 10.2 °C 1019.5 hPa West 2.6 km/h 14.8 km/h 90% 0.0 mm 0 W/m2
01:57 11.8 °C 10.2 °C 1019.5 hPa West 3.5 km/h 13.4 km/h 90% 0.0 mm 0 W/m2
02:02 11.7 °C 10.3 °C 1019.5 hPa WNW 3.5 km/h 11.1 km/h 91% 0.0 mm 0 W/m2
02:07 11.6 °C 10.2 °C 1019.5 hPa West 2.6 km/h 8.7 km/h 91% 0.0 mm 0 W/m2
02:12 11.6 °C 10.2 °C 1019.9 hPa West 1.1 km/h 8.7 km/h 91% 0.0 mm 0 W/m2
02:17 11.5 °C 10.1 °C 1019.9 hPa West 6.1 km/h 11.1 km/h 91% 0.0 mm 0 W/m2
02:22 11.5 °C 10.2 °C 1019.9 hPa West 5.0 km/h 11.1 km/h 92% 0.0 mm 0 W/m2
02:27 11.5 °C 10.2 °C 1019.9 hPa WSW 5.0 km/h 9.7 km/h 92% 0.0 mm 0 W/m2
02:32 11.4 °C 10.2 °C 1019.9 hPa West 7.2 km/h 13.4 km/h 92% 0.0 mm 0 W/m2
02:37 11.3 °C 10.2 °C 1019.9 hPa West 5.0 km/h 13.4 km/h 93% 0.0 mm 0 W/m2
02:42 11.2 °C 10.1 °C 1019.5 hPa WNW 2.6 km/h 12.2 km/h 93% 0.0 mm 0 W/m2
02:47 11.1 °C 10.0 °C 1019.9 hPa NW 2.6 km/h 8.7 km/h 93% 0.0 mm 0 W/m2
02:52 10.9 °C 10.0 °C 1019.9 hPa North 2.6 km/h 6.1 km/h 94% 0.0 mm 0 W/m2
02:57 10.8 °C 10.1 °C 1019.5 hPa NNW 3.5 km/h 6.1 km/h 95% 0.0 mm 0 W/m2
03:02 10.7 °C 9.9 °C 1019.9 hPa NW 6.1 km/h 8.7 km/h 95% 0.0 mm 0 W/m2
03:07 10.6 °C 10.0 °C 1019.5 hPa NNW 6.1 km/h 11.1 km/h 96% 0.0 mm 0 W/m2
03:12 10.5 °C 9.9 °C 1019.5 hPa NNW 5.0 km/h 11.1 km/h 96% 0.0 mm 0 W/m2
03:17 10.5 °C 10.1 °C 1019.5 hPa NW 2.6 km/h 11.1 km/h 97% 0.0 mm 0 W/m2
03:22 10.5 °C 10.1 °C 1019.5 hPa NW 5.0 km/h 8.7 km/h 97% 0.0 mm 0 W/m2
03:27 10.5 °C 10.1 °C 1019.5 hPa NW 3.5 km/h 9.7 km/h 97% 0.0 mm 0 W/m2
03:32 10.5 °C 10.2 °C 1019.5 hPa NW 5.0 km/h 9.7 km/h 98% 0.0 mm 0 W/m2
03:37 10.6 °C 10.3 °C 1019.5 hPa WNW 5.0 km/h 12.2 km/h 98% 0.0 mm 0 W/m2
03:42 10.7 °C 10.4 °C 1019.5 hPa WNW 3.5 km/h 12.2 km/h 98% 0.0 mm 0 W/m2
03:47 10.8 °C 10.7 °C 1019.2 hPa WNW 2.6 km/h 9.7 km/h 99% 0.0 mm 0 W/m2
03:52 11.0 °C 10.7 °C 1019.5 hPa WNW 6.1 km/h 17.2 km/h 98% 0.0 mm 0 W/m2
03:57 11.2 °C 10.9 °C 1019.5 hPa West 12.2 km/h 17.2 km/h 98% 0.0 mm 0 W/m2
04:02 11.3 °C 10.8 °C 1019.5 hPa West 8.7 km/h 15.8 km/h 97% 0.0 mm 0 W/m2
04:07 11.2 °C 10.7 °C 1019.2 hPa WNW 2.6 km/h 15.8 km/h 97% 0.0 mm 0 W/m2
04:12 11.3 °C 10.8 °C 1019.5 hPa WNW 3.5 km/h 13.4 km/h 97% 0.0 mm 0 W/m2
04:17 11.3 °C 10.8 °C 1019.5 hPa West 7.2 km/h 15.8 km/h 97% 0.0 mm 0 W/m2
04:22 11.4 °C 10.9 °C 1019.5 hPa West 7.2 km/h 15.8 km/h 97% 0.0 mm 0 W/m2
04:27 11.4 °C 10.9 °C 1019.2 hPa West 3.5 km/h 12.2 km/h 97% 0.0 mm 0 W/m2
04:32 11.4 °C 10.9 °C 1019.5 hPa West 2.6 km/h 13.4 km/h 97% 0.0 mm 0 W/m2
04:37 11.4 °C 10.9 °C 1019.5 hPa West 7.2 km/h 13.4 km/h 97% 0.0 mm 0 W/m2
04:42 11.5 °C 11.1 °C 1019.5 hPa West 6.1 km/h 12.2 km/h 97% 0.0 mm 0 W/m2
04:47 11.5 °C 11.1 °C 1019.2 hPa West 6.1 km/h 18.3 km/h 97% 0.0 mm 0 W/m2
04:52 11.5 °C 11.1 °C 1019.2 hPa West 15.8 km/h 18.3 km/h 97% 0.0 mm 0 W/m2
04:57 11.5 °C 11.1 °C 1019.2 hPa West 8.7 km/h 18.3 km/h 97% 0.0 mm 0 W/m2
05:02 11.5 °C 11.1 °C 1019.2 hPa West 8.7 km/h 20.9 km/h 97% 0.0 mm 0 W/m2
05:07 11.4 °C 10.9 °C 1019.2 hPa West 6.1 km/h 20.9 km/h 97% 0.0 mm 0 W/m2
05:12 11.4 °C 10.9 °C 1019.5 hPa West 12.2 km/h 24.5 km/h 97% 0.0 mm 0 W/m2
05:17 11.4 °C 10.9 °C 1019.5 hPa West 13.4 km/h 24.5 km/h 97% 0.0 mm 0 W/m2
05:22 11.4 °C 10.9 °C 1019.5 hPa West 8.7 km/h 19.5 km/h 97% 0.0 mm 0 W/m2
05:27 11.4 °C 10.9 °C 1019.5 hPa WSW 13.4 km/h 19.5 km/h 97% 0.0 mm 0 W/m2
05:32 11.4 °C 10.9 °C 1019.5 hPa WSW 9.7 km/h 20.9 km/h 97% 0.0 mm 0 W/m2
05:37 11.4 °C 10.9 °C 1019.5 hPa West 7.2 km/h 20.9 km/h 97% 0.0 mm 0 W/m2
05:42 11.4 °C 10.9 °C 1019.5 hPa West 6.1 km/h 19.5 km/h 97% 0.0 mm 0 W/m2
05:47 11.4 °C 10.9 °C 1019.5 hPa West 9.7 km/h 19.5 km/h 97% 0.0 mm 0 W/m2
05:52 11.4 °C 10.9 °C 1019.5 hPa West 3.5 km/h 17.2 km/h 97% 0.0 mm 0 W/m2
05:57 11.4 °C 10.9 °C 1019.5 hPa WSW 7.2 km/h 14.8 km/h 97% 0.0 mm 0 W/m2
06:02 11.4 °C 10.9 °C 1019.5 hPa West 3.5 km/h 14.8 km/h 97% 0.0 mm 0 W/m2
06:07 11.3 °C 10.8 °C 1019.5 hPa WNW 3.5 km/h 14.8 km/h 97% 0.0 mm 0 W/m2
06:12 11.3 °C 10.8 °C 1019.9 hPa WNW 6.1 km/h 7.2 km/h 97% 0.5 mm 0 W/m2
06:17 11.3 °C 10.8 °C 1019.5 hPa WNW 2.6 km/h 8.7 km/h 97% 0.5 mm 0 W/m2
06:22 11.4 °C 10.9 °C 1019.5 hPa WSW 9.7 km/h 19.5 km/h 97% 0.5 mm 0 W/m2
06:27 11.4 °C 10.9 °C 1019.5 hPa WSW 15.8 km/h 20.9 km/h 97% 0.5 mm 0 W/m2
06:32 11.4 °C 10.9 °C 1019.9 hPa WSW 12.2 km/h 20.9 km/h 97% 0.5 mm 0 W/m2
06:37 11.3 °C 11.0 °C 1019.9 hPa WSW 9.7 km/h 21.9 km/h 98% 0.5 mm 0 W/m2
06:42 11.3 °C 11.0 °C 1019.9 hPa WSW 7.2 km/h 21.9 km/h 98% 0.5 mm 0 W/m2
06:47 11.3 °C 11.0 °C 1019.9 hPa West 6.1 km/h 20.9 km/h 98% 0.5 mm 0 W/m2
06:52 11.3 °C 11.0 °C 1019.9 hPa WSW 13.4 km/h 19.5 km/h 98% 0.5 mm 0 W/m2
06:58 11.3 °C 11.0 °C 1019.9 hPa West 15.8 km/h 20.9 km/h 98% 0.5 mm 0 W/m2
07:03 11.3 °C 11.0 °C 1019.9 hPa West 14.8 km/h 20.9 km/h 98% 0.5 mm 0 W/m2
07:08 11.3 °C 11.0 °C 1019.9 hPa WSW 9.7 km/h 19.5 km/h 98% 0.5 mm 0 W/m2
07:13 11.4 °C 11.1 °C 1020.2 hPa West 9.7 km/h 23.3 km/h 98% 0.0 mm 1 W/m2
07:18 11.4 °C 11.1 °C 1019.9 hPa West 8.7 km/h 23.3 km/h 98% 0.0 mm 3 W/m2
07:23 11.4 °C 11.1 °C 1019.9 hPa West 7.2 km/h 21.9 km/h 98% 0.0 mm 3 W/m2
07:28 11.4 °C 11.1 °C 1020.2 hPa WNW 7.2 km/h 18.3 km/h 98% 0.0 mm 3 W/m2
07:33 11.5 °C 11.2 °C 1020.2 hPa West 8.7 km/h 20.9 km/h 98% 0.0 mm 3 W/m2
07:38 11.4 °C 11.1 °C 1020.2 hPa West 7.2 km/h 20.9 km/h 98% 0.3 mm 3 W/m2
07:43 11.4 °C 11.1 °C 1020.5 hPa West 8.7 km/h 20.9 km/h 98% 0.3 mm 2 W/m2
07:48 11.4 °C 11.1 °C 1020.5 hPa WSW 13.4 km/h 15.8 km/h 98% 0.3 mm 6 W/m2
07:53 11.4 °C 11.1 °C 1020.2 hPa WSW 9.7 km/h 21.9 km/h 98% 0.3 mm 4 W/m2
07:58 11.4 °C 11.1 °C 1020.9 hPa SW 9.7 km/h 21.9 km/h 98% 0.3 mm 10 W/m2
08:03 11.4 °C 11.1 °C 1020.5 hPa SSW 7.2 km/h 15.8 km/h 98% 0.3 mm 8 W/m2
08:08 11.5 °C 11.2 °C 1020.5 hPa SW 3.5 km/h 14.8 km/h 98% 0.3 mm 9 W/m2
08:13 11.6 °C 11.3 °C 1020.5 hPa WSW 9.7 km/h 24.5 km/h 98% 0.5 mm 9 W/m2
08:18 11.6 °C 11.3 °C 1020.5 hPa WSW 3.5 km/h 24.5 km/h 98% 0.5 mm 7 W/m2
08:23 11.5 °C 11.2 °C 1020.9 hPa WSW 3.5 km/h 18.3 km/h 98% 0.5 mm 22 W/m2
08:28 11.5 °C 11.1 °C 1020.5 hPa West 5.0 km/h 14.8 km/h 97% 0.5 mm 25 W/m2
08:33 11.5 °C 11.1 °C 1020.9 hPa WNW 3.5 km/h 14.8 km/h 97% 1.0 mm 14 W/m2
08:38 11.4 °C 11.1 °C 1020.9 hPa West 1.1 km/h 14.8 km/h 98% 1.0 mm 16 W/m2
08:43 11.3 °C 11.0 °C 1020.9 hPa Calm   7.2 km/h 98% 1.0 mm 16 W/m2
08:48 11.3 °C 11.0 °C 1020.9 hPa NNW 3.5 km/h 6.1 km/h 98% 1.0 mm 21 W/m2
08:53 11.4 °C 11.1 °C 1020.9 hPa West 6.1 km/h 12.2 km/h 98% 1.0 mm 21 W/m2
08:58 11.4 °C 11.1 °C 1020.9 hPa West 3.5 km/h 12.2 km/h 98% 1.0 mm 43 W/m2
09:03 11.4 °C 11.1 °C 1020.9 hPa West 7.2 km/h 12.2 km/h 98% 1.0 mm 49 W/m2
09:08 11.4 °C 11.1 °C 1020.9 hPa WSW 7.2 km/h 17.2 km/h 98% 1.0 mm 55 W/m2
09:13 11.4 °C 11.1 °C 1020.5 hPa WSW 7.2 km/h 17.2 km/h 98% 0.5 mm 53 W/m2
09:18 11.4 °C 11.1 °C 1020.9 hPa WSW 7.2 km/h 13.4 km/h 98% 0.5 mm 57 W/m2
09:23 11.5 °C 11.2 °C 1020.9 hPa WSW 9.7 km/h 13.4 km/h 98% 0.5 mm 91 W/m2
09:28 11.6 °C 11.3 °C 1020.9 hPa West 7.2 km/h 13.4 km/h 98% 0.5 mm 102 W/m2
09:33 11.7 °C 11.4 °C 1020.9 hPa West 8.7 km/h 13.4 km/h 98% 0.3 mm 76 W/m2
09:38 11.7 °C 11.4 °C 1020.9 hPa West 5.0 km/h 15.8 km/h 98% 0.3 mm 49 W/m2
09:43 11.7 °C 11.4 °C 1021.2 hPa WSW 5.0 km/h 15.8 km/h 98% 0.3 mm 53 W/m2
09:48 11.7 °C 11.4 °C 1020.9 hPa WSW 7.2 km/h 18.3 km/h 98% 1.0 mm 60 W/m2
09:53 11.7 °C 11.4 °C 1021.2 hPa WSW 8.7 km/h 18.3 km/h 98% 1.3 mm 92 W/m2
09:58 11.8 °C 11.5 °C 1021.2 hPa WSW 6.1 km/h 15.8 km/h 98% 1.3 mm 100 W/m2
10:03 12.0 °C 11.6 °C 1021.2 hPa WSW 3.5 km/h 13.4 km/h 97% 1.3 mm 122 W/m2
10:08 12.2 °C 11.7 °C 1021.2 hPa West 2.6 km/h 9.7 km/h 97% 1.3 mm 156 W/m2
10:13 12.4 °C 11.9 °C 1021.2 hPa West 3.5 km/h 9.7 km/h 97% 1.3 mm 151 W/m2
10:18 12.6 °C 12.2 °C 1021.2 hPa West 2.6 km/h 9.7 km/h 97% 1.3 mm 141 W/m2
10:23 12.6 °C 12.2 °C 1021.6 hPa West 7.2 km/h 18.3 km/h 97% 1.3 mm 70 W/m2
10:28 12.5 °C 12.1 °C 1021.6 hPa WSW 2.6 km/h 18.3 km/h 97% 1.3 mm 45 W/m2
10:33 12.3 °C 11.7 °C 1021.6 hPa SSW 7.2 km/h 12.2 km/h 96% 1.5 mm 46 W/m2
10:38 12.2 °C 11.4 °C 1021.6 hPa South 5.0 km/h 12.2 km/h 95% 1.8 mm 39 W/m2
10:43 12.1 °C 11.3 °C 1021.9 hPa SSW 11.1 km/h 21.9 km/h 95% 1.8 mm 47 W/m2
10:48 12.0 °C 11.4 °C 1021.6 hPa SSW 8.7 km/h 21.9 km/h 96% 1.5 mm 63 W/m2
10:53 12.0 °C 11.4 °C 1021.6 hPa SSW 8.7 km/h 15.8 km/h 96% 1.5 mm 107 W/m2
10:58 12.0 °C 11.4 °C 1021.6 hPa SW 5.0 km/h 13.4 km/h 96% 1.5 mm 120 W/m2
11:03 12.1 °C 11.7 °C 1021.6 hPa WSW 6.1 km/h 13.4 km/h 97% 1.8 mm 116 W/m2
11:08 12.2 °C 11.7 °C 1021.6 hPa SW 6.1 km/h 9.7 km/h 97% 1.8 mm 88 W/m2
11:13 12.1 °C 11.7 °C 1021.2 hPa SW 9.7 km/h 13.4 km/h 97% 1.8 mm 91 W/m2
11:18 12.1 °C 11.7 °C 1021.6 hPa WSW 9.7 km/h 13.4 km/h 97% 1.8 mm 118 W/m2
11:23 12.3 °C 11.8 °C 1021.2 hPa WSW 8.7 km/h 13.4 km/h 97% 1.8 mm 155 W/m2
11:28 12.4 °C 11.9 °C 1021.2 hPa WSW 6.1 km/h 13.4 km/h 97% 1.8 mm 127 W/m2
11:33 12.4 °C 11.9 °C 1021.2 hPa WSW 7.2 km/h 13.4 km/h 97% 1.5 mm 125 W/m2
11:38 12.5 °C 12.1 °C 1021.2 hPa WSW 9.7 km/h 12.2 km/h 97% 1.3 mm 146 W/m2
11:48 12.5 °C 12.1 °C 1021.2 hPa WSW 6.1 km/h 17.2 km/h 97% 1.0 mm 107 W/m2
11:53 12.5 °C 12.1 °C 1021.2 hPa WSW 9.7 km/h 14.8 km/h 97% 0.5 mm 142 W/m2
11:58 12.4 °C 11.8 °C 1021.2 hPa WSW 9.7 km/h 15.8 km/h 96% 0.5 mm 153 W/m2
12:03 12.4 °C 11.8 °C 1021.2 hPa WSW 9.7 km/h 15.8 km/h 96% 0.5 mm 126 W/m2
12:08 12.3 °C 11.7 °C 1021.2 hPa WSW 5.0 km/h 14.8 km/h 96% 0.5 mm 103 W/m2
12:13 12.5 °C 12.1 °C 1021.6 hPa SW 2.6 km/h 12.2 km/h 97% 1.0 mm 117 W/m2
12:18 12.5 °C 12.1 °C 1021.2 hPa SW 5.0 km/h 8.7 km/h 97% 1.0 mm 127 W/m2
12:23 12.4 °C 11.9 °C 1021.2 hPa SW 12.2 km/h 14.8 km/h 97% 1.3 mm 149 W/m2
12:28 12.4 °C 11.9 °C 1021.2 hPa SW 6.1 km/h 14.8 km/h 97% 1.3 mm 153 W/m2
12:33 12.4 °C 11.9 °C 1021.2 hPa SW 9.7 km/h 15.8 km/h 97% 1.5 mm 146 W/m2
12:38 12.3 °C 11.8 °C 1021.2 hPa WSW 8.7 km/h 17.2 km/h 97% 1.3 mm 164 W/m2
12:43 12.4 °C 11.9 °C 1021.6 hPa WSW 7.2 km/h 17.2 km/h 97% 1.3 mm 179 W/m2
12:44 12.4 °C 11.9 °C 1020.9 hPa WSW 7.2 km/h 17.2 km/h 97% 1.3 mm 176 W/m2
12:50 12.5 °C 12.1 °C 1021.2 hPa WSW 11.1 km/h 15.8 km/h 97% 1.3 mm 202 W/m2
12:55 12.5 °C 12.1 °C 1021.2 hPa SW 12.2 km/h 15.8 km/h 97% 1.3 mm 195 W/m2
13:00 12.5 °C 12.1 °C 1021.2 hPa SW 6.1 km/h 15.8 km/h 97% 1.5 mm 164 W/m2
13:05 12.5 °C 12.1 °C 1021.2 hPa WSW 9.7 km/h 17.2 km/h 97% 1.3 mm 131 W/m2
13:10 12.5 °C 12.1 °C 1021.2 hPa WSW 9.7 km/h 17.2 km/h 97% 1.0 mm 114 W/m2
13:15 12.3 °C 11.8 °C 1021.2 hPa WSW 6.1 km/h 15.8 km/h 97% 1.0 mm 117 W/m2
13:20 12.3 °C 11.8 °C 1021.2 hPa SW 9.7 km/h 15.8 km/h 97% 0.5 mm 128 W/m2
13:26 12.4 °C 11.9 °C 1021.2 hPa SW 5.0 km/h 12.2 km/h 97% 0.5 mm 114 W/m2
13:28 12.4 °C 11.9 °C 1021.2 hPa SW 7.2 km/h 12.2 km/h 97% 0.5 mm 115 W/m2
13:33 12.4 °C 11.9 °C 1021.2 hPa WSW 7.2 km/h 11.1 km/h 97% 0.3 mm 115 W/m2
13:38 12.4 °C 11.9 °C 1021.2 hPa West 8.7 km/h 14.8 km/h 97% 0.3 mm 125 W/m2
13:43 12.3 °C 11.8 °C 1021.2 hPa WSW 5.0 km/h 14.8 km/h 97% 0.3 mm 115 W/m2
13:48 12.4 °C 11.9 °C 1021.2 hPa SW 3.5 km/h 14.8 km/h 97% 0.3 mm 140 W/m2
13:53 12.4 °C 11.9 °C 1020.9 hPa SW 8.7 km/h 11.1 km/h 97% 0.3 mm 148 W/m2
13:58 12.5 °C 12.1 °C 1021.2 hPa SW 6.1 km/h 11.1 km/h 97% 0.3 mm 147 W/m2
14:03 12.5 °C 12.1 °C 1020.9 hPa SW 7.2 km/h 11.1 km/h 97% 0.0 mm 123 W/m2
14:08 12.5 °C 12.1 °C 1020.9 hPa SW 2.6 km/h 11.1 km/h 97% 0.0 mm 118 W/m2
14:13 12.5 °C 12.1 °C 1020.9 hPa SW 3.5 km/h 12.2 km/h 97% 0.3 mm 112 W/m2
14:18 12.5 °C 12.1 °C 1020.9 hPa SW 9.7 km/h 14.8 km/h 97% 0.3 mm 115 W/m2
14:23 12.5 °C 12.1 °C 1020.9 hPa SW 9.7 km/h 14.8 km/h 97% 0.3 mm 122 W/m2
14:28 12.4 °C 11.9 °C 1020.9 hPa SW 8.7 km/h 14.8 km/h 97% 0.3 mm 120 W/m2
14:33 12.5 °C 12.1 °C 1021.2 hPa SW 8.7 km/h 14.8 km/h 97% 0.3 mm 112 W/m2
14:38 12.5 °C 12.1 °C 1020.9 hPa SW 5.0 km/h 11.1 km/h 97% 0.3 mm 114 W/m2
14:43 12.5 °C 12.1 °C 1020.9 hPa SW 6.1 km/h 11.1 km/h 97% 0.3 mm 122 W/m2
14:48 12.7 °C 12.1 °C 1020.9 hPa SW 7.2 km/h 11.1 km/h 96% 0.3 mm 112 W/m2
14:53 12.8 °C 12.2 °C 1020.9 hPa SW 6.1 km/h 11.1 km/h 96% 0.3 mm 107 W/m2
14:58 12.9 °C 12.3 °C 1020.9 hPa SW 6.1 km/h 9.7 km/h 96% 0.3 mm 98 W/m2
15:03 12.9 °C 12.1 °C 1020.9 hPa SW 7.2 km/h 9.7 km/h 95% 0.3 mm 101 W/m2
15:08 13.0 °C 12.2 °C 1020.9 hPa SW 2.6 km/h 9.7 km/h 95% 0.3 mm 112 W/m2
15:13 13.2 °C 12.4 °C 1020.9 hPa WSW 5.0 km/h 8.7 km/h 95% 0.0 mm 112 W/m2
15:18 13.1 °C 12.2 °C 1020.9 hPa SW 7.2 km/h 8.7 km/h 94% 0.0 mm 130 W/m2
15:23 13.0 °C 11.9 °C 1020.9 hPa SW 6.1 km/h 8.7 km/h 93% 0.0 mm 120 W/m2
15:28 13.1 °C 12.0 °C 1020.9 hPa WSW 6.1 km/h 9.7 km/h 93% 0.0 mm 111 W/m2
15:38 13.3 °C 11.9 °C 1020.9 hPa SW 3.5 km/h 8.7 km/h 91% 0.0 mm 82 W/m2
15:43 13.2 °C 11.8 °C 1020.9 hPa SW 1.1 km/h 7.2 km/h 91% 0.0 mm 85 W/m2
15:48 13.3 °C 11.9 °C 1020.9 hPa SW 2.6 km/h 6.1 km/h 91% 0.0 mm 71 W/m2
15:53 13.3 °C 11.9 °C 1020.9 hPa Calm   6.1 km/h 91% 0.0 mm 62 W/m2
15:58 13.2 °C 11.8 °C 1020.9 hPa SW 1.1 km/h 5.0 km/h 91% 0.0 mm 48 W/m2
16:03 13.0 °C 11.4 °C 1020.9 hPa Calm   5.0 km/h 90% 0.0 mm 42 W/m2
16:08 12.9 °C 11.4 °C 1020.9 hPa SW 1.1 km/h 3.5 km/h 91% 0.0 mm 36 W/m2
16:13 12.9 °C 11.4 °C 1020.9 hPa Calm   2.6 km/h 91% 0.0 mm 32 W/m2
16:18 12.8 °C 11.4 °C 1020.9 hPa Calm   2.6 km/h 91% 0.0 mm 25 W/m2
16:23 12.7 °C 11.3 °C 1020.9 hPa Calm   2.6 km/h 91% 0.0 mm 20 W/m2
16:28 12.6 °C 11.2 °C 1020.9 hPa Calm   2.6 km/h 91% 0.0 mm 16 W/m2
16:38 12.5 °C 11.1 °C 1020.9 hPa Calm     91% 0.0 mm 10 W/m2
16:48 12.4 °C 11.0 °C 1020.9 hPa Calm     91% 0.0 mm 5 W/m2
16:53 12.3 °C 11.1 °C 1020.9 hPa Calm     92% 0.0 mm 4 W/m2
17:03 12.1 °C 10.8 °C 1020.9 hPa Calm     92% 0.0 mm 0 W/m2
17:08 12.1 °C 10.8 °C 1020.9 hPa Calm   2.6 km/h 92% 0.0 mm 0 W/m2
17:13 12.1 °C 10.8 °C 1021.2 hPa Calm   2.6 km/h 92% 0.0 mm 0 W/m2
17:18 12.1 °C 10.8 °C 1020.9 hPa Calm   2.6 km/h 92% 0.0 mm 0 W/m2
17:23 12.0 °C 10.7 °C 1020.9 hPa Calm   2.6 km/h 92% 0.0 mm 0 W/m2
17:28 12.0 °C 10.9 °C 1021.2 hPa Calm   1.1 km/h 93% 0.0 mm 0 W/m2
17:33 11.9 °C 10.9 °C 1021.2 hPa Calm   2.6 km/h 94% 0.0 mm 0 W/m2
17:38 11.8 °C 10.9 °C 1021.2 hPa Calm   2.6 km/h 94% 0.0 mm 0 W/m2
17:43 11.8 °C 10.9 °C 1021.2 hPa Calm     94% 0.0 mm 0 W/m2
17:48 11.7 °C 10.9 °C 1021.2 hPa Calm     95% 0.0 mm 0 W/m2
17:53 11.6 °C 10.8 °C 1021.2 hPa Calm     95% 0.0 mm 0 W/m2
17:58 11.7 °C 10.9 °C 1021.2 hPa NNW 1.1 km/h 3.5 km/h 95% 0.0 mm 0 W/m2
18:03 11.5 °C 10.7 °C 1021.2 hPa Calm   3.5 km/h 95% 0.0 mm 0 W/m2
18:08 11.5 °C 10.9 °C 1021.2 hPa Calm   3.5 km/h 96% 0.0 mm 0 W/m2
18:13 11.5 °C 10.9 °C 1021.2 hPa North 1.1 km/h 5.0 km/h 96% 0.0 mm 0 W/m2
18:18 11.5 °C 10.9 °C 1021.2 hPa Calm   5.0 km/h 96% 0.0 mm 0 W/m2
18:23 11.5 °C 10.9 °C 1021.6 hPa Calm   2.6 km/h 96% 0.0 mm 0 W/m2
18:28 11.4 °C 10.9 °C 1021.2 hPa NW 2.6 km/h 3.5 km/h 97% 0.0 mm 0 W/m2
18:33 11.4 °C 10.9 °C 1021.6 hPa NNW 2.6 km/h 3.5 km/h 97% 0.0 mm 0 W/m2
18:38 11.3 °C 10.8 °C 1021.6 hPa North 2.6 km/h 5.0 km/h 97% 0.0 mm 0 W/m2
18:43 11.3 °C 10.8 °C 1021.6 hPa North 1.1 km/h 5.0 km/h 97% 0.0 mm 0 W/m2
18:48 11.2 °C 10.9 °C 1021.2 hPa North 2.6 km/h 5.0 km/h 98% 0.0 mm 0 W/m2
18:53 11.1 °C 10.8 °C 1021.2 hPa Calm   3.5 km/h 98% 0.0 mm 0 W/m2
18:58 11.0 °C 10.7 °C 1021.2 hPa Calm   3.5 km/h 98% 0.0 mm 0 W/m2
19:03 10.9 °C 10.8 °C 1021.2 hPa North 1.1 km/h 2.6 km/h 99% 0.0 mm 0 W/m2
19:08 10.8 °C 10.7 °C 1021.2 hPa North 2.6 km/h 3.5 km/h 99% 0.0 mm 0 W/m2
19:13 10.7 °C 10.6 °C 1021.2 hPa North 1.1 km/h 3.5 km/h 99% 0.0 mm 0 W/m2
19:18 10.6 °C 10.4 °C 1021.2 hPa Calm   3.5 km/h 99% 0.0 mm 0 W/m2
19:23 10.5 °C 10.3 °C 1021.2 hPa NNW 1.1 km/h 2.6 km/h 99% 0.0 mm 0 W/m2
19:28 10.4 °C 10.3 °C 1021.2 hPa North 1.1 km/h 2.6 km/h 99% 0.0 mm 0 W/m2
19:33 10.3 °C 10.2 °C 1021.2 hPa North 1.1 km/h 3.5 km/h 99% 0.0 mm 0 W/m2
19:38 10.2 °C 10.1 °C 1020.9 hPa Calm   3.5 km/h 99% 0.0 mm 0 W/m2
19:43 10.1 °C 9.9 °C 1020.9 hPa North 1.1 km/h 2.6 km/h 99% 0.0 mm 0 W/m2
19:48 10.0 °C 9.8 °C 1020.9 hPa NNW 3.5 km/h 5.0 km/h 99% 0.0 mm 0 W/m2
19:53 10.0 °C 9.8 °C 1021.2 hPa NW 3.5 km/h 5.0 km/h 99% 0.0 mm 0 W/m2
19:58 9.9 °C 9.8 °C 1020.9 hPa NW 2.6 km/h 6.1 km/h 99% 0.0 mm 0 W/m2
20:03 9.8 °C 9.7 °C 1020.9 hPa NW 2.6 km/h 6.1 km/h 99% 0.0 mm 0 W/m2
20:08 9.7 °C 9.6 °C 1020.9 hPa NNW 2.6 km/h 5.0 km/h 99% 0.0 mm 0 W/m2
20:13 9.7 °C 9.6 °C 1021.2 hPa NNW 1.1 km/h 5.0 km/h 99% 0.0 mm 0 W/m2
20:18 9.6 °C 9.4 °C 1020.9 hPa North 1.1 km/h 5.0 km/h 99% 0.0 mm 0 W/m2
20:23 9.5 °C 9.3 °C 1021.2 hPa North 1.1 km/h 3.5 km/h 99% 0.0 mm 0 W/m2
20:28 9.4 °C 9.3 °C 1021.2 hPa North 2.6 km/h 5.0 km/h 99% 0.0 mm 0 W/m2
20:33 9.3 °C 9.2 °C 1021.2 hPa NNW 5.0 km/h 6.1 km/h 99% 0.0 mm 0 W/m2
20:38 9.2 °C 9.1 °C 1021.2 hPa NNW 3.5 km/h 6.1 km/h 99% 0.0 mm 0 W/m2
20:43 9.0 °C 8.8 °C 1021.2 hPa NNW 2.6 km/h 6.1 km/h 99% 0.0 mm 0 W/m2
20:48 9.0 °C 8.8 °C 1021.2 hPa NNW 3.5 km/h 7.2 km/h 99% 0.0 mm 0 W/m2
20:53 8.9 °C 8.8 °C 1021.6 hPa NNW 3.5 km/h 8.7 km/h 99% 0.0 mm 0 W/m2
20:58 8.9 °C 8.8 °C 1021.6 hPa NNW 3.5 km/h 8.7 km/h 99% 0.0 mm 0 W/m2
21:03 8.9 °C 8.8 °C 1021.6 hPa NW 5.0 km/h 7.2 km/h 99% 0.0 mm 0 W/m2
21:08 9.0 °C 8.8 °C 1021.6 hPa NNW 5.0 km/h 7.2 km/h 99% 0.0 mm 0 W/m2
21:13 9.1 °C 8.9 °C 1021.6 hPa NNW 2.6 km/h 8.7 km/h 99% 0.0 mm 0 W/m2
21:18 9.2 °C 9.1 °C 1021.9 hPa NNW 5.0 km/h 9.7 km/h 99% 0.0 mm 0 W/m2
21:23 9.2 °C 9.1 °C 1021.6 hPa NW 5.0 km/h 9.7 km/h 99% 0.0 mm 0 W/m2
21:28 9.2 °C 9.1 °C 1021.9 hPa NNW 5.0 km/h 8.7 km/h 99% 0.0 mm 0 W/m2
21:33 9.2 °C 9.1 °C 1021.6 hPa NNW 5.0 km/h 7.2 km/h 99% 0.0 mm 0 W/m2
21:38 9.2 °C 9.1 °C 1021.6 hPa North 5.0 km/h 8.7 km/h 99% 0.0 mm 0 W/m2
21:43 9.2 °C 9.1 °C 1021.6 hPa North 2.6 km/h 8.7 km/h 99% 0.0 mm 0 W/m2
21:48 9.2 °C 9.1 °C 1021.6 hPa North 3.5 km/h 7.2 km/h 99% 0.0 mm 0 W/m2
21:53 9.1 °C 8.9 °C 1021.6 hPa North 5.0 km/h 7.2 km/h 99% 0.0 mm 0 W/m2
21:58 9.2 °C 9.1 °C 1021.6 hPa NNW 2.6 km/h 7.2 km/h 99% 0.0 mm 0 W/m2
22:03 9.2 °C 9.1 °C 1021.6 hPa NW 2.6 km/h 7.2 km/h 99% 0.0 mm 0 W/m2
22:08 9.2 °C 9.1 °C 1021.6 hPa NNW 3.5 km/h 6.1 km/h 99% 0.0 mm 0 W/m2
22:29 9.2 °C 9.1 °C 1021.6 hPa NNW 3.5 km/h 7.2 km/h 99% 0.0 mm 0 W/m2
22:39 9.1 °C 8.9 °C 1021.6 hPa NW 3.5 km/h 8.7 km/h 99% 0.0 mm 0 W/m2
22:44 9.0 °C 8.8 °C 1021.6 hPa NW 2.6 km/h 7.2 km/h 99% 0.0 mm 0 W/m2
22:49 9.0 °C 8.8 °C 1021.6 hPa NW 2.6 km/h 7.2 km/h 99% 0.0 mm 0 W/m2
22:54 9.0 °C 8.8 °C 1021.6 hPa NNW 2.6 km/h 6.1 km/h 99% 0.0 mm 0 W/m2
22:59 9.0 °C 8.8 °C 1021.6 hPa NNW 3.5 km/h 6.1 km/h 99% 0.0 mm 0 W/m2
23:04 9.0 °C 8.8 °C 1021.6 hPa NW 3.5 km/h 6.1 km/h 99% 0.0 mm 0 W/m2
23:09 9.0 °C 8.8 °C 1021.6 hPa NW 2.6 km/h 7.2 km/h 99% 0.0 mm 0 W/m2
23:14 9.0 °C 8.8 °C 1021.6 hPa NNW 3.5 km/h 7.2 km/h 99% 0.0 mm 0 W/m2
23:19 9.1 °C 8.9 °C 1021.6 hPa NNW 3.5 km/h 7.2 km/h 99% 0.0 mm 0 W/m2
23:24 9.1 °C 8.9 °C 1021.6 hPa NNW 3.5 km/h 7.2 km/h 99% 0.0 mm 0 W/m2
23:29 9.1 °C 8.9 °C 1021.6 hPa NNW 3.5 km/h 7.2 km/h 99% 0.0 mm 0 W/m2
23:34 9.1 °C 8.9 °C 1021.6 hPa NNW 3.5 km/h 7.2 km/h 99% 0.0 mm 0 W/m2
23:40 9.1 °C 8.9 °C 1021.6 hPa NNW 3.5 km/h 7.2 km/h 99% 0.0 mm 0 W/m2
23:46 9.1 °C 8.9 °C 1021.6 hPa NNW 3.5 km/h 7.2 km/h 99% 0.0 mm 0 W/m2
23:51 9.1 °C 8.9 °C 1021.2 hPa NW 5.0 km/h 7.2 km/h 99% 0.0 mm 0 W/m2
23:56 9.1 °C 8.9 °C 1021.6 hPa NW 3.5 km/h 7.2 km/h 99% 0.0 mm 0 W/m2
Northern Hawkes Bay. New Zealand Historic Data
Compliments of Weather Underground - 2 mb